sensor_id;sensor_type;location;lat;lon;timestamp;temperature;humidity
18073;DHT22;9161;47.348;9.648;2023-02-15T00:02:43;0.10;99.90
18073;DHT22;9161;47.348;9.648;2023-02-15T00:07:47;0.10;99.90
18073;DHT22;9161;47.348;9.648;2023-02-15T00:12:50;0.00;99.90
18073;DHT22;9161;47.348;9.648;2023-02-15T00:17:52;0.10;99.90
18073;DHT22;9161;47.348;9.648;2023-02-15T00:22:56;-0.10;99.90
18073;DHT22;9161;47.348;9.648;2023-02-15T00:28:00;-0.20;99.90
18073;DHT22;9161;47.348;9.648;2023-02-15T00:33:02;-0.20;99.90
18073;DHT22;9161;47.348;9.648;2023-02-15T00:38:05;-0.20;99.90
18073;DHT22;9161;47.348;9.648;2023-02-15T00:43:08;-0.30;99.90
18073;DHT22;9161;47.348;9.648;2023-02-15T00:48:10;-0.40;99.90
18073;DHT22;9161;47.348;9.648;2023-02-15T00:53:14;-0.50;99.90
18073;DHT22;9161;47.348;9.648;2023-02-15T00:58:16;-0.60;99.90
18073;DHT22;9161;47.348;9.648;2023-02-15T01:03:20;-0.60;99.90
18073;DHT22;9161;47.348;9.648;2023-02-15T01:08:24;-0.60;99.90
18073;DHT22;9161;47.348;9.648;2023-02-15T01:13:26;-0.60;99.90
18073;DHT22;9161;47.348;9.648;2023-02-15T01:18:28;-0.60;99.90
18073;DHT22;9161;47.348;9.648;2023-02-15T01:23:32;-0.60;99.90
18073;DHT22;9161;47.348;9.648;2023-02-15T01:28:35;-0.60;99.90
18073;DHT22;9161;47.348;9.648;2023-02-15T01:33:38;-0.70;99.90
18073;DHT22;9161;47.348;9.648;2023-02-15T01:38:41;-0.60;99.90
18073;DHT22;9161;47.348;9.648;2023-02-15T01:43:46;-0.50;99.90
18073;DHT22;9161;47.348;9.648;2023-02-15T01:48:52;-0.50;99.90
18073;DHT22;9161;47.348;9.648;2023-02-15T01:54:01;-0.40;99.90
18073;DHT22;9161;47.348;9.648;2023-02-15T01:59:07;-0.50;99.90
18073;DHT22;9161;47.348;9.648;2023-02-15T02:04:15;-0.50;99.90
18073;DHT22;9161;47.348;9.648;2023-02-15T02:09:20;-0.50;99.90
18073;DHT22;9161;47.348;9.648;2023-02-15T02:14:22;-0.60;99.90
18073;DHT22;9161;47.348;9.648;2023-02-15T02:25:59;-0.50;99.90
18073;DHT22;9161;47.348;9.648;2023-02-15T02:31:25;-0.50;99.90
18073;DHT22;9161;47.348;9.648;2023-02-15T02:36:38;-0.50;99.90
18073;DHT22;9161;47.348;9.648;2023-02-15T02:41:49;-0.70;99.90
18073;DHT22;9161;47.348;9.648;2023-02-15T02:46:54;-0.60;99.90
18073;DHT22;9161;47.348;9.648;2023-02-15T02:52:03;-0.50;99.90
18073;DHT22;9161;47.348;9.648;2023-02-15T02:57:08;-0.50;99.90
18073;DHT22;9161;47.348;9.648;2023-02-15T03:02:15;-0.40;99.90
18073;DHT22;9161;47.348;9.648;2023-02-15T03:07:22;-0.30;99.90
18073;DHT22;9161;47.348;9.648;2023-02-15T03:12:28;-0.30;99.90
18073;DHT22;9161;47.348;9.648;2023-02-15T03:17:35;-0.30;99.90
18073;DHT22;9161;47.348;9.648;2023-02-15T03:22:41;-0.20;99.90
18073;DHT22;9161;47.348;9.648;2023-02-15T03:27:47;-0.20;99.90
18073;DHT22;9161;47.348;9.648;2023-02-15T03:32:51;-0.10;99.90
18073;DHT22;9161;47.348;9.648;2023-02-15T03:37:59;-0.10;99.90
18073;DHT22;9161;47.348;9.648;2023-02-15T03:43:07;-0.10;99.90
18073;DHT22;9161;47.348;9.648;2023-02-15T03:48:12;-0.30;99.90
18073;DHT22;9161;47.348;9.648;2023-02-15T03:53:18;-0.30;99.90
18073;DHT22;9161;47.348;9.648;2023-02-15T03:58:21;-0.20;99.90
18073;DHT22;9161;47.348;9.648;2023-02-15T04:03:43;-0.20;99.90
18073;DHT22;9161;47.348;9.648;2023-02-15T04:08:48;-0.20;99.90
18073;DHT22;9161;47.348;9.648;2023-02-15T04:14:08;-0.20;99.90
18073;DHT22;9161;47.348;9.648;2023-02-15T04:19:24;-0.20;99.90
18073;DHT22;9161;47.348;9.648;2023-02-15T04:24:45;-0.30;99.90
18073;DHT22;9161;47.348;9.648;2023-02-15T04:30:06;-0.30;99.90
18073;DHT22;9161;47.348;9.648;2023-02-15T04:35:09;-0.20;99.90
18073;DHT22;9161;47.348;9.648;2023-02-15T04:40:14;-0.20;99.90
18073;DHT22;9161;47.348;9.648;2023-02-15T04:45:19;-0.20;99.90
18073;DHT22;9161;47.348;9.648;2023-02-15T04:50:21;-0.20;99.90
18073;DHT22;9161;47.348;9.648;2023-02-15T04:55:25;-0.20;99.90
18073;DHT22;9161;47.348;9.648;2023-02-15T05:00:27;-0.30;99.90
18073;DHT22;9161;47.348;9.648;2023-02-15T05:05:30;-0.40;99.90
18073;DHT22;9161;47.348;9.648;2023-02-15T05:10:33;-0.40;99.90
18073;DHT22;9161;47.348;9.648;2023-02-15T05:15:36;-0.40;99.90
18073;DHT22;9161;47.348;9.648;2023-02-15T05:20:38;-0.40;99.90
18073;DHT22;9161;47.348;9.648;2023-02-15T05:25:47;-0.30;99.90
18073;DHT22;9161;47.348;9.648;2023-02-15T05:31:07;-0.30;99.90
18073;DHT22;9161;47.348;9.648;2023-02-15T05:36:12;-0.60;99.90
18073;DHT22;9161;47.348;9.648;2023-02-15T05:41:16;-0.60;99.90
18073;DHT22;9161;47.348;9.648;2023-02-15T05:46:20;-0.70;99.90
18073;DHT22;9161;47.348;9.648;2023-02-15T05:51:23;-0.90;99.90
18073;DHT22;9161;47.348;9.648;2023-02-15T05:56:27;-1.10;99.90
18073;DHT22;9161;47.348;9.648;2023-02-15T06:01:30;-1.10;99.90
18073;DHT22;9161;47.348;9.648;2023-02-15T06:06:32;-1.20;99.90
18073;DHT22;9161;47.348;9.648;2023-02-15T06:11:36;-1.10;99.90
18073;DHT22;9161;47.348;9.648;2023-02-15T06:16:38;-1.10;99.90
18073;DHT22;9161;47.348;9.648;2023-02-15T06:21:41;-1.10;99.90
18073;DHT22;9161;47.348;9.648;2023-02-15T06:26:44;-1.10;99.90
18073;DHT22;9161;47.348;9.648;2023-02-15T06:31:46;-1.20;99.90
18073;DHT22;9161;47.348;9.648;2023-02-15T06:36:49;-1.20;99.90
18073;DHT22;9161;47.348;9.648;2023-02-15T06:41:52;-1.30;99.90
18073;DHT22;9161;47.348;9.648;2023-02-15T06:46:55;-1.20;99.90
18073;DHT22;9161;47.348;9.648;2023-02-15T06:51:57;-1.50;99.90
18073;DHT22;9161;47.348;9.648;2023-02-15T06:57:00;-1.50;99.90
18073;DHT22;9161;47.348;9.648;2023-02-15T07:02:02;-1.70;99.90
18073;DHT22;9161;47.348;9.648;2023-02-15T07:07:08;-1.80;99.90
18073;DHT22;9161;47.348;9.648;2023-02-15T07:12:12;-2.00;99.90
18073;DHT22;9161;47.348;9.648;2023-02-15T07:17:32;-2.00;99.90
18073;DHT22;9161;47.348;9.648;2023-02-15T07:22:36;-2.00;99.90
18073;DHT22;9161;47.348;9.648;2023-02-15T07:27:40;-2.10;99.90
18073;DHT22;9161;47.348;9.648;2023-02-15T07:32:42;-1.90;99.90
18073;DHT22;9161;47.348;9.648;2023-02-15T07:37:59;-2.00;99.90
18073;DHT22;9161;47.348;9.648;2023-02-15T07:43:03;-2.10;99.90
18073;DHT22;9161;47.348;9.648;2023-02-15T07:48:05;-1.90;99.90
18073;DHT22;9161;47.348;9.648;2023-02-15T07:53:08;-1.60;99.90
18073;DHT22;9161;47.348;9.648;2023-02-15T07:58:12;-1.50;99.90
18073;DHT22;9161;47.348;9.648;2023-02-15T08:03:14;-1.30;99.90
18073;DHT22;9161;47.348;9.648;2023-02-15T08:08:16;-1.10;99.90
18073;DHT22;9161;47.348;9.648;2023-02-15T08:13:32;-0.90;99.90
18073;DHT22;9161;47.348;9.648;2023-02-15T08:18:35;-0.70;99.90
18073;DHT22;9161;47.348;9.648;2023-02-15T08:23:36;-0.60;99.90
18073;DHT22;9161;47.348;9.648;2023-02-15T08:28:41;-0.60;99.90
18073;DHT22;9161;47.348;9.648;2023-02-15T08:33:44;-0.70;99.90
18073;DHT22;9161;47.348;9.648;2023-02-15T08:38:47;-0.50;99.90
18073;DHT22;9161;47.348;9.648;2023-02-15T08:43:53;0.10;99.90
18073;DHT22;9161;47.348;9.648;2023-02-15T08:48:56;0.00;99.90
18073;DHT22;9161;47.348;9.648;2023-02-15T08:54:03;0.20;99.90
18073;DHT22;9161;47.348;9.648;2023-02-15T08:59:12;0.00;99.90
18073;DHT22;9161;47.348;9.648;2023-02-15T09:04:15;0.30;99.90
18073;DHT22;9161;47.348;9.648;2023-02-15T09:09:19;0.40;99.90
18073;DHT22;9161;47.348;9.648;2023-02-15T09:14:23;0.60;99.90
18073;DHT22;9161;47.348;9.648;2023-02-15T09:19:26;0.80;99.90
18073;DHT22;9161;47.348;9.648;2023-02-15T09:24:32;0.80;99.90
18073;DHT22;9161;47.348;9.648;2023-02-15T09:29:36;1.00;99.90
18073;DHT22;9161;47.348;9.648;2023-02-15T09:34:38;1.20;99.90
18073;DHT22;9161;47.348;9.648;2023-02-15T09:39:42;1.30;99.90
18073;DHT22;9161;47.348;9.648;2023-02-15T09:45:06;1.30;99.90
18073;DHT22;9161;47.348;9.648;2023-02-15T09:50:19;1.50;99.90
18073;DHT22;9161;47.348;9.648;2023-02-15T09:55:33;1.80;99.90
18073;DHT22;9161;47.348;9.648;2023-02-15T10:00:46;1.80;99.90
18073;DHT22;9161;47.348;9.648;2023-02-15T10:05:59;1.90;99.90
18073;DHT22;9161;47.348;9.648;2023-02-15T10:11:10;1.70;99.90
18073;DHT22;9161;47.348;9.648;2023-02-15T10:16:55;1.90;99.90
18073;DHT22;9161;47.348;9.648;2023-02-15T10:22:05;2.40;99.90
18073;DHT22;9161;47.348;9.648;2023-02-15T10:27:12;2.50;99.90
18073;DHT22;9161;47.348;9.648;2023-02-15T10:32:22;2.80;99.90
18073;DHT22;9161;47.348;9.648;2023-02-15T10:37:48;3.00;99.90
18073;DHT22;9161;47.348;9.648;2023-02-15T10:43:13;3.30;99.90
18073;DHT22;9161;47.348;9.648;2023-02-15T10:48:41;3.30;99.90
18073;DHT22;9161;47.348;9.648;2023-02-15T10:54:02;3.50;99.90
18073;DHT22;9161;47.348;9.648;2023-02-15T10:59:19;3.50;99.90
18073;DHT22;9161;47.348;9.648;2023-02-15T11:04:51;3.10;99.90
18073;DHT22;9161;47.348;9.648;2023-02-15T11:10:01;2.90;99.90
18073;DHT22;9161;47.348;9.648;2023-02-15T11:15:16;3.30;99.90
18073;DHT22;9161;47.348;9.648;2023-02-15T11:20:27;3.30;99.90
18073;DHT22;9161;47.348;9.648;2023-02-15T11:25:33;3.50;99.90
18073;DHT22;9161;47.348;9.648;2023-02-15T11:30:42;3.60;99.90
18073;DHT22;9161;47.348;9.648;2023-02-15T11:35:53;3.50;99.90
18073;DHT22;9161;47.348;9.648;2023-02-15T11:40:58;4.00;99.90
18073;DHT22;9161;47.348;9.648;2023-02-15T11:46:02;4.30;99.90
18073;DHT22;9161;47.348;9.648;2023-02-15T11:51:08;4.90;99.90
18073;DHT22;9161;47.348;9.648;2023-02-15T11:56:17;4.90;99.90
18073;DHT22;9161;47.348;9.648;2023-02-15T12:01:23;5.90;99.90
18073;DHT22;9161;47.348;9.648;2023-02-15T12:06:30;5.60;99.90
18073;DHT22;9161;47.348;9.648;2023-02-15T12:11:36;5.70;99.90
18073;DHT22;9161;47.348;9.648;2023-02-15T12:16:42;6.80;99.90
18073;DHT22;9161;47.348;9.648;2023-02-15T12:21:49;6.60;99.90
18073;DHT22;9161;47.348;9.648;2023-02-15T12:26:58;6.80;99.90
18073;DHT22;9161;47.348;9.648;2023-02-15T12:32:01;8.80;99.90
18073;DHT22;9161;47.348;9.648;2023-02-15T12:37:14;9.40;99.90
18073;DHT22;9161;47.348;9.648;2023-02-15T12:42:18;8.00;99.90
18073;DHT22;9161;47.348;9.648;2023-02-15T12:47:20;9.10;99.90
18073;DHT22;9161;47.348;9.648;2023-02-15T12:52:29;11.50;99.90
18073;DHT22;9161;47.348;9.648;2023-02-15T12:57:32;13.50;99.90
18073;DHT22;9161;47.348;9.648;2023-02-15T13:02:41;13.70;99.90
18073;DHT22;9161;47.348;9.648;2023-02-15T13:07:49;14.40;99.90
18073;DHT22;9161;47.348;9.648;2023-02-15T13:12:52;15.20;99.90
18073;DHT22;9161;47.348;9.648;2023-02-15T13:17:55;17.00;99.90
18073;DHT22;9161;47.348;9.648;2023-02-15T13:23:03;16.40;99.90
18073;DHT22;9161;47.348;9.648;2023-02-15T13:28:12;16.00;99.90
18073;DHT22;9161;47.348;9.648;2023-02-15T13:33:21;16.30;99.90
18073;DHT22;9161;47.348;9.648;2023-02-15T13:38:57;17.60;99.90
18073;DHT22;9161;47.348;9.648;2023-02-15T13:44:08;17.80;99.90
18073;DHT22;9161;47.348;9.648;2023-02-15T13:49:21;17.30;99.90
18073;DHT22;9161;47.348;9.648;2023-02-15T13:54:36;18.10;99.70
18073;DHT22;9161;47.348;9.648;2023-02-15T13:59:53;16.30;99.90
18073;DHT22;9161;47.348;9.648;2023-02-15T14:05:15;16.80;99.90
18073;DHT22;9161;47.348;9.648;2023-02-15T14:10:38;20.00;97.50
18073;DHT22;9161;47.348;9.648;2023-02-15T14:15:45;19.70;95.90
18073;DHT22;9161;47.348;9.648;2023-02-15T14:20:57;20.50;95.60
18073;DHT22;9161;47.348;9.648;2023-02-15T14:26:09;20.70;96.40
18073;DHT22;9161;47.348;9.648;2023-02-15T14:31:14;21.70;93.30
18073;DHT22;9161;47.348;9.648;2023-02-15T14:36:19;20.70;93.40
18073;DHT22;9161;47.348;9.648;2023-02-15T14:41:29;21.20;91.90
18073;DHT22;9161;47.348;9.648;2023-02-15T14:46:41;20.50;92.00
18073;DHT22;9161;47.348;9.648;2023-02-15T14:52:02;17.90;94.20
18073;DHT22;9161;47.348;9.648;2023-02-15T14:57:37;17.20;95.00
18073;DHT22;9161;47.348;9.648;2023-02-15T15:02:45;17.40;95.00
18073;DHT22;9161;47.348;9.648;2023-02-15T15:07:51;16.80;95.50
18073;DHT22;9161;47.348;9.648;2023-02-15T15:12:56;14.50;98.20
18073;DHT22;9161;47.348;9.648;2023-02-15T15:18:00;13.40;99.90
18073;DHT22;9161;47.348;9.648;2023-02-15T15:23:41;12.80;99.90
18073;DHT22;9161;47.348;9.648;2023-02-15T15:29:01;11.60;99.90
18073;DHT22;9161;47.348;9.648;2023-02-15T15:34:35;10.20;99.90
18073;DHT22;9161;47.348;9.648;2023-02-15T15:45:58;9.10;99.90
18073;DHT22;9161;47.348;9.648;2023-02-15T15:51:12;8.80;99.90
18073;DHT22;9161;47.348;9.648;2023-02-15T15:56:18;8.80;99.90
18073;DHT22;9161;47.348;9.648;2023-02-15T16:01:27;8.60;99.90
18073;DHT22;9161;47.348;9.648;2023-02-15T16:06:33;8.10;99.90
18073;DHT22;9161;47.348;9.648;2023-02-15T16:11:37;7.50;99.90
18073;DHT22;9161;47.348;9.648;2023-02-15T16:16:48;7.00;99.90
18073;DHT22;9161;47.348;9.648;2023-02-15T16:21:54;6.60;99.90
18073;DHT22;9161;47.348;9.648;2023-02-15T16:27:18;6.00;99.90
18073;DHT22;9161;47.348;9.648;2023-02-15T16:32:25;5.50;99.90
18073;DHT22;9161;47.348;9.648;2023-02-15T16:37:32;4.70;99.90
18073;DHT22;9161;47.348;9.648;2023-02-15T16:42:36;4.10;99.90
18073;DHT22;9161;47.348;9.648;2023-02-15T16:47:42;3.70;99.90
18073;DHT22;9161;47.348;9.648;2023-02-15T16:52:45;3.50;99.90
18073;DHT22;9161;47.348;9.648;2023-02-15T16:57:50;3.30;99.90
18073;DHT22;9161;47.348;9.648;2023-02-15T17:02:59;3.00;99.90
18073;DHT22;9161;47.348;9.648;2023-02-15T17:08:14;2.80;99.90
18073;DHT22;9161;47.348;9.648;2023-02-15T17:13:18;2.70;99.90
18073;DHT22;9161;47.348;9.648;2023-02-15T17:18:28;2.50;99.90
18073;DHT22;9161;47.348;9.648;2023-02-15T17:23:34;2.40;99.90
18073;DHT22;9161;47.348;9.648;2023-02-15T17:28:47;2.40;99.90
18073;DHT22;9161;47.348;9.648;2023-02-15T17:33:53;2.30;99.90
18073;DHT22;9161;47.348;9.648;2023-02-15T17:39:05;2.10;99.90
18073;DHT22;9161;47.348;9.648;2023-02-15T17:44:12;1.80;99.90
18073;DHT22;9161;47.348;9.648;2023-02-15T17:49:23;1.70;99.90
18073;DHT22;9161;47.348;9.648;2023-02-15T17:54:28;1.60;99.90
18073;DHT22;9161;47.348;9.648;2023-02-15T17:59:49;1.50;99.90
18073;DHT22;9161;47.348;9.648;2023-02-15T18:05:14;1.30;99.90
18073;DHT22;9161;47.348;9.648;2023-02-15T18:10:35;1.20;99.90
18073;DHT22;9161;47.348;9.648;2023-02-15T18:15:59;1.20;99.90
18073;DHT22;9161;47.348;9.648;2023-02-15T18:21:06;0.90;99.90
18073;DHT22;9161;47.348;9.648;2023-02-15T18:26:21;0.70;99.90
18073;DHT22;9161;47.348;9.648;2023-02-15T18:31:28;0.60;99.90
18073;DHT22;9161;47.348;9.648;2023-02-15T18:36:42;0.40;99.90
18073;DHT22;9161;47.348;9.648;2023-02-15T18:41:46;0.40;99.90
18073;DHT22;9161;47.348;9.648;2023-02-15T18:46:50;0.40;99.90
18073;DHT22;9161;47.348;9.648;2023-02-15T18:52:00;0.40;99.90
18073;DHT22;9161;47.348;9.648;2023-02-15T18:57:08;0.40;99.90
18073;DHT22;9161;47.348;9.648;2023-02-15T19:02:14;0.40;99.90
18073;DHT22;9161;47.348;9.648;2023-02-15T19:07:25;0.30;99.90
18073;DHT22;9161;47.348;9.648;2023-02-15T19:12:30;0.30;99.90
18073;DHT22;9161;47.348;9.648;2023-02-15T19:17:35;0.20;99.90
18073;DHT22;9161;47.348;9.648;2023-02-15T19:22:45;0.00;99.90
18073;DHT22;9161;47.348;9.648;2023-02-15T19:27:49;0.00;99.90
18073;DHT22;9161;47.348;9.648;2023-02-15T19:32:55;-0.10;99.90
18073;DHT22;9161;47.348;9.648;2023-02-15T19:38:13;-0.20;99.90
18073;DHT22;9161;47.348;9.648;2023-02-15T19:43:20;-0.20;99.90
18073;DHT22;9161;47.348;9.648;2023-02-15T19:48:28;-0.20;99.90
18073;DHT22;9161;47.348;9.648;2023-02-15T19:53:35;-0.30;99.90
18073;DHT22;9161;47.348;9.648;2023-02-15T19:58:40;-0.30;99.90
18073;DHT22;9161;47.348;9.648;2023-02-15T20:03:46;-0.50;99.90
18073;DHT22;9161;47.348;9.648;2023-02-15T20:08:58;-0.60;99.90
18073;DHT22;9161;47.348;9.648;2023-02-15T20:14:02;-0.70;99.90
18073;DHT22;9161;47.348;9.648;2023-02-15T20:19:08;-0.50;99.90
18073;DHT22;9161;47.348;9.648;2023-02-15T20:24:19;-0.60;99.90
18073;DHT22;9161;47.348;9.648;2023-02-15T20:29:24;-0.60;99.90
18073;DHT22;9161;47.348;9.648;2023-02-15T20:34:29;-0.60;99.90
18073;DHT22;9161;47.348;9.648;2023-02-15T20:39:36;-0.60;99.90
18073;DHT22;9161;47.348;9.648;2023-02-15T20:44:50;-0.80;99.90
18073;DHT22;9161;47.348;9.648;2023-02-15T20:49:56;-0.80;99.90
18073;DHT22;9161;47.348;9.648;2023-02-15T21:01:13;-1.00;99.90
18073;DHT22;9161;47.348;9.648;2023-02-15T21:06:33;-0.90;99.90
18073;DHT22;9161;47.348;9.648;2023-02-15T21:11:38;-0.80;99.90
18073;DHT22;9161;47.348;9.648;2023-02-15T21:16:45;-0.80;99.90
18073;DHT22;9161;47.348;9.648;2023-02-15T21:21:51;-1.00;99.90
18073;DHT22;9161;47.348;9.648;2023-02-15T21:27:02;-1.10;99.90
18073;DHT22;9161;47.348;9.648;2023-02-15T21:32:10;-1.20;99.90
18073;DHT22;9161;47.348;9.648;2023-02-15T21:37:27;-1.10;99.90
18073;DHT22;9161;47.348;9.648;2023-02-15T21:42:31;-1.20;99.90
18073;DHT22;9161;47.348;9.648;2023-02-15T21:47:53;-1.50;99.90
18073;DHT22;9161;47.348;9.648;2023-02-15T21:52:56;-1.60;99.90
18073;DHT22;9161;47.348;9.648;2023-02-15T21:57:59;-1.60;99.90
18073;DHT22;9161;47.348;9.648;2023-02-15T22:03:04;-1.60;99.90
18073;DHT22;9161;47.348;9.648;2023-02-15T22:08:11;-1.50;99.90
18073;DHT22;9161;47.348;9.648;2023-02-15T22:13:15;-1.60;99.90
18073;DHT22;9161;47.348;9.648;2023-02-15T22:18:22;-1.50;99.90
18073;DHT22;9161;47.348;9.648;2023-02-15T22:23:25;-1.40;99.90
18073;DHT22;9161;47.348;9.648;2023-02-15T22:28:30;-1.20;99.90
18073;DHT22;9161;47.348;9.648;2023-02-15T22:33:35;-1.40;99.90
18073;DHT22;9161;47.348;9.648;2023-02-15T22:38:37;-1.60;99.90
18073;DHT22;9161;47.348;9.648;2023-02-15T22:43:41;-1.60;99.90
18073;DHT22;9161;47.348;9.648;2023-02-15T22:48:46;-1.70;99.90
18073;DHT22;9161;47.348;9.648;2023-02-15T22:53:49;-1.70;99.90
18073;DHT22;9161;47.348;9.648;2023-02-15T22:58:58;-1.60;99.90
18073;DHT22;9161;47.348;9.648;2023-02-15T23:04:03;-1.80;99.90
18073;DHT22;9161;47.348;9.648;2023-02-15T23:09:05;-1.90;99.90
18073;DHT22;9161;47.348;9.648;2023-02-15T23:14:21;-1.90;99.90
18073;DHT22;9161;47.348;9.648;2023-02-15T23:19:26;-1.90;99.90
18073;DHT22;9161;47.348;9.648;2023-02-15T23:24:30;-1.90;99.90
18073;DHT22;9161;47.348;9.648;2023-02-15T23:29:34;-2.00;99.90
18073;DHT22;9161;47.348;9.648;2023-02-15T23:34:37;-1.70;99.90
18073;DHT22;9161;47.348;9.648;2023-02-15T23:39:39;-1.80;99.90
18073;DHT22;9161;47.348;9.648;2023-02-15T23:44:59;-1.70;99.90
18073;DHT22;9161;47.348;9.648;2023-02-15T23:50:10;-1.80;99.90
18073;DHT22;9161;47.348;9.648;2023-02-15T23:55:17;-1.90;99.90
